INFORMAÇÕES METEOROLÓGICAS
METAR FOR LIPZ
ADDS - METARS form results

(1108 UTC 28 March 2020)
Data provider http://aviationweather.gov/metar/data/
 
METAR text: LIPZ 281050Z 15005KT CAVOK 15/02 Q1014 NOSIG
Conditions at: LIPZ (VENEZIA/TESSERA , IT) observed 1050 UTC 28 March 2020
Temperature: 15.0°C (59°F)
Dewpoint: 2.0°C (36°F) [RH = 41%]
Pressure (altimeter): 29.94 inches Hg (1014.0 mb)
Winds: from the SSE (150 degrees) at 6 MPH (5 knots; 2.6 m/s)
Visibility: 6 or more miles (10+ km)
Ceiling: ceiling and visibility are OK
Clouds: unknown
Weather: no significant weather observed at this time

METAR text: LIPZ 281020Z 11006KT 060V160 CAVOK 16/03 Q1015 NOSIG
Conditions at: LIPZ (VENEZIA/TESSERA , IT) observed 1020 UTC 28 March 2020
Temperature: 16.0°C (61°F)
Dewpoint: 3.0°C (37°F) [RH = 42%]
Pressure (altimeter): 29.97 inches Hg (1015.0 mb)
Winds: from the ESE (110 degrees) at 7 MPH (6 knots; 3.1 m/s)
Visibility: 6 or more miles (10+ km)
Ceiling: ceiling and visibility are OK
Clouds: unknown
Weather: no significant weather observed at this time

Forecast for: LIPZ (VENEZIA/TESSERA , IT)
Text: TAF LIPZ 280500Z 2806/2912 03008KT 9999 SCT050
Forecast period: 0600 UTC 28 March 2020 to 1200 UTC 29 March 2020
Forecast type: FROM: standard forecast or significant change
Winds: from the NNE (30 degrees) at 9 MPH (8 knots; 4.1 m/s)
Visibility: 6 or more miles 10+ km)
Ceiling: at least 12,000 feet AGL
Clouds: scattered clouds at 5000 feet AGL
Weather: no significant weather forecast for this period
Text: TEMPO 2811/2817 13010KT
Forecast period: 1100 to 1700 UTC 28 March 2020
Forecast type: TEMPORARY: The following changes expected for less than half the time period
Winds: from the SE (130 degrees) at 12 MPH (10 knots; 5.1 m/s)
Visibility: missing
Ceiling: unknown
Clouds: missing
Weather: no significant weather forecast for this period

 MAPA DO AEROPORTO

 INFORMAÇÕES DA PISTA
Pista 04L Tamanho da pista 9121 ft Largura da pista 148 ft
Elevação da pista 7 ft Ranhura da pista 308 ft Proa da pista 42
Pista 22R Tamanho da pista 9121 ft Largura da pista 148 ft
Elevação da pista 7 ft Ranhura da pista 0 ft Proa da pista 222
Pista 04R Tamanho da pista 10827 ft Largura da pista 148 ft
Elevação da pista 7 ft Ranhura da pista 0 ft Proa da pista 42
Pista 22L Tamanho da pista 10827 ft Largura da pista 148 ft
Elevação da pista 7 ft Ranhura da pista 0 ft Proa da pista 222

 FREQUÊNCIAS DO AEROPORTO
Tipo APP Nome APP Frequência 118.9 MHZ
Tipo ATIS Nome ATIS Frequência 122.225 MHZ
Tipo GND Nome GND Frequência 121.7 MHZ
Tipo TWR Nome TWR Frequência 120.2 MHZ

 AUXÍLIOS DE NAVEGAÇÃO PRÓXIMOS AO AEROPORTO
Tipo VOR-DME Nome Tessera Frequência 115300 KHZ
Tipo NDB Nome Venezia Frequência 379 KHZ





Powered by Virtual Airlines Manager [v2.6.2]